Carseland, Canada
Current Conditions -  °F | °C
As of 2:00 PM on Saturday 27 Dec 2014 (Local Time) from CYYC Reporting Station
Broken Clouds Broken Clouds  
Wind Chill: 28°   Ceiling: 20000
Heat Index: 28°   Visibility: 40mi
Dew Point: 12°   Wind: 0mph
Humidity: 51%   Direction: NA
Pressure: 29.82"   Gusts: NA
Location:  50.85°N, 113.47°W
Report Text: CYYC 272100Z 00000KT 40SM SCT120 BKN200 M02/M11 A2982 RMK AC3CI3 SLP154
Loading
Personal Weather Stations






























Interactive Weather Map New forecast layout! Learn more

10-Day Weather Forecast

Advertisements
Track Severe Weather on mobile